Weather reports worldwide

Advertisment
Fehmarnbelt/Grosstonne, Germany (10043): temperature & dewpoint: 16.09.2018 23:00:00 - 22.09.2018 23:00:00 (CEST)Fehmarnbelt/Grosstonne, Germany (10043): water temperature: 16.09.2018 23:00:00 - 22.09.2018 23:00:00 (CEST)Fehmarnbelt/Grosstonne, Germany (10043): reduced air pressure: 16.09.2018 23:00:00 - 22.09.2018 23:00:00 (CEST)
Date & Time tt [°C] td [°C] tw [°C] ppp [hPa]
22.09.2018 23:00:00 13,4 7,9 16,2 1012,4
22.09.2018 22:00:00 14,0 7,4 16,1 1012,4
22.09.2018 21:00:00 14,0 7,7 16,1 1012,2
22.09.2018 20:00:00 14,5 6,5 16,3 1011,8
22.09.2018 19:00:00 14,0 8,2 16,3 1011,9
22.09.2018 18:00:00 14,7 6,5 16,4 1011,8
22.09.2018 17:00:00 14,2 10,2 16,3 1012,0
22.09.2018 16:00:00 15,5 7,7 16,3 1012,0
22.09.2018 15:00:00 14,9 8,4 16,3 1012,1
22.09.2018 14:00:00 15,0 9,7 16,3 1011,6
22.09.2018 13:00:00 13,5 10,5 16,3 1011,6
22.09.2018 12:00:00 14,7 9,9 16,3 1011,8
22.09.2018 11:00:00 13,4 10,2 16,3 1012,4
22.09.2018 10:00:00 13,9 9,5 16,3 1011,8
22.09.2018 09:00:00 13,9 10,0 16,3 1011,4
22.09.2018 08:00:00 13,5 9,2 16,3 1010,8
22.09.2018 07:00:00 13,2 9,2 16,3 1010,2
22.09.2018 06:00:00 13,0 9,5 16,3 1009,5
22.09.2018 05:00:00 12,9 9,4 16,3 1008,7
22.09.2018 04:00:00 12,5 9,5 16,4 1008,0
22.09.2018 03:00:00 12,0 10,4 16,5 1007,7
22.09.2018 02:00:00 11,9 8,7 16,5 1006,7
22.09.2018 01:00:00 12,5 9,0 16,6 1006,1
22.09.2018 00:00:00 13,0 8,2 16,6 1005,6
21.09.2018 23:00:00 12,7 8,4 16,6 1004,8
21.09.2018 22:00:00 12,9 7,4 16,6 1004,2
21.09.2018 21:00:00 14,0 7,7 16,5 1004,2
21.09.2018 20:00:00 14,0 7,7 16,6 1003,5
21.09.2018 19:00:00 14,5 9,2 16,7 1002,8
21.09.2018 18:00:00 15,2 9,2 16,8 1002,3
21.09.2018 17:00:00 16,0 10,4 16,9 1001,5
21.09.2018 16:00:00 16,0 10,0 17,0 1000,6
21.09.2018 15:00:00 15,4 12,2 17,0 1000,6
21.09.2018 14:00:00 15,5 13,5 17,1 999,6
21.09.2018 13:00:00 20,2 13,9 17,2 998,2
21.09.2018 12:00:00 23,0 13,4 17,3 997,7
21.09.2018 11:00:00 21,5 14,4 17,3 997,9
21.09.2018 10:00:00 20,7 14,5 17,2 998,8
21.09.2018 09:00:00 19,7 14,0 17,2 1000,0
21.09.2018 08:00:00 19,0 14,0 17,2 1001,0
21.09.2018 07:00:00 18,7 13,2 17,2 1002,0
21.09.2018 06:00:00 19,0 12,9 17,2 1003,6
21.09.2018 05:00:00 18,7 14,0 17,2 1004,5
21.09.2018 04:00:00 18,5 14,5 17,2 1005,4
21.09.2018 03:00:00 18,4 14,7 17,2 1006,8
21.09.2018 02:00:00 18,5 14,5 17,2 1007,7
21.09.2018 01:00:00 18,2 15,0 17,2 1008,8
21.09.2018 00:00:00 18,2 14,7 17,1 1009,8
20.09.2018 23:00:00 18,4 15,0 17,3 1010,6
20.09.2018 22:00:00 19,2 14,5 17,5 1011,1
20.09.2018 21:00:00 19,7 15,0 17,5 1011,4
20.09.2018 20:00:00 19,0 16,0 17,4 1011,7
20.09.2018 19:00:00 19,9 15,5 17,7 1011,9
20.09.2018 18:00:00 19,7 15,7 17,6 1012,5
20.09.2018 17:00:00 21,0 15,7 17,6 1012,7
20.09.2018 16:00:00 20,7 16,2 17,5 1013,2
20.09.2018 15:00:00 19,5 15,7 17,4 1013,6
20.09.2018 14:00:00 20,0 15,5 17,3 1013,6
20.09.2018 13:00:00 19,9 15,4 17,4 1013,7
20.09.2018 12:00:00 20,5 15,5 17,3 1014,3
20.09.2018 11:00:00 20,2 15,0 17,1 1014,6
20.09.2018 10:00:00 19,4 14,5 17,0 1014,3
20.09.2018 09:00:00 18,7 14,4 17,0 1014,4
20.09.2018 08:00:00 18,0 14,4 17,0 1014,5
20.09.2018 07:00:00 18,0 14,5 17,0 1014,2
20.09.2018 06:00:00 18,0 14,7 17,2 1014,0
20.09.2018 05:00:00 18,4 14,9 17,3 1014,0
20.09.2018 04:00:00 18,7 14,7 17,3 1013,9
20.09.2018 03:00:00 19,0 14,5 17,4 1013,7
20.09.2018 02:00:00 19,2 14,7 17,4 1014,0
20.09.2018 01:00:00 19,5 14,7 17,4 1014,1
20.09.2018 00:00:00 19,4 15,2 17,4 1014,3
19.09.2018 23:00:00 18,7 15,9 17,5 1014,6
19.09.2018 22:00:00 18,4 16,5 17,5 1014,5
19.09.2018 21:00:00 18,9 16,2 17,5 1014,3
19.09.2018 20:00:00 19,9 15,5 17,6 1013,4
19.09.2018 19:00:00 19,5 16,0 17,6 1013,5
19.09.2018 18:00:00 22,2 15,0 17,7 1013,4
19.09.2018 17:00:00 23,4 15,0 17,9 1013,8
19.09.2018 16:00:00 22,2 15,0 17,8 1014,5
19.09.2018 15:00:00 23,2 15,5 17,7 1015,1
19.09.2018 14:00:00 22,5 15,2 17,3 1015,3
19.09.2018 13:00:00 20,7 15,7 17,3 1015,9
19.09.2018 12:00:00 20,0 15,5 17,3 1015,7
19.09.2018 11:00:00 19,5 15,2 17,3 1015,4
19.09.2018 10:00:00 18,9 15,2 17,3 1015,4
19.09.2018 09:00:00 17,5 15,0 17,3 1015,0
19.09.2018 08:00:00 17,2 15,0 17,3 1015,2
19.09.2018 07:00:00 16,7 14,7 17,3 1015,0
19.09.2018 06:00:00 17,0 14,9 17,3 1014,5
19.09.2018 05:00:00 17,0 14,7 17,2 1014,3
19.09.2018 04:00:00 17,2 14,9 17,1 1014,1
19.09.2018 03:00:00 17,4 15,0 17,1 1013,5
19.09.2018 02:00:00 17,7 15,4 17,0 1013,3
19.09.2018 01:00:00 17,9 15,5 16,9 1013,1
19.09.2018 00:00:00 18,2 15,3 17,0 1012,8
18.09.2018 23:00:00 18,4 15,5 17,2 1012,8
18.09.2018 22:00:00 18,0 16,7 17,3 1012,5
18.09.2018 21:00:00 18,5 16,2 17,5 1011,7
18.09.2018 20:00:00 20,5 15,7 17,5 1010,7
18.09.2018 19:00:00 22,7 13,9 17,5 1009,2
18.09.2018 18:00:00 23,9 14,2 17,5 1009,4
18.09.2018 17:00:00 24,5 14,2 17,5 1009,5
18.09.2018 16:00:00 25,2 12,7 17,5 1009,9
18.09.2018 15:00:00 24,7 12,7 17,5 1010,5
18.09.2018 14:00:00 23,0 15,4 17,4 1011,2
18.09.2018 13:00:00 22,2 13,4 17,3 1011,9
18.09.2018 12:00:00 21,5 12,9 17,3 1012,5
18.09.2018 11:00:00 20,7 13,2 17,1 1013,0
18.09.2018 10:00:00 20,0 13,9 17,1 1013,1
18.09.2018 09:00:00 18,7 13,5 16,9 1013,4
18.09.2018 08:00:00 17,2 13,5 16,8 1013,4
18.09.2018 07:00:00 17,0 13,0 16,8 1013,4
18.09.2018 06:00:00 17,0 13,5 16,9 1014,0
18.09.2018 05:00:00 16,7 14,2 16,8 1014,5
18.09.2018 04:00:00 16,7 14,0 16,6 1014,8
18.09.2018 03:00:00 17,0 14,2 16,6 1014,9
18.09.2018 02:00:00 17,2 13,0 16,6 1015,6
18.09.2018 01:00:00 17,5 14,0 16,6 1015,8
18.09.2018 00:00:00 17,5 14,0 16,7 1016,2
17.09.2018 23:00:00 17,4 14,2 17,1 1016,7
17.09.2018 22:00:00 18,2 12,5 16,9 1017,0
17.09.2018 21:00:00 18,2 13,5 16,9 1017,2
17.09.2018 20:00:00 18,5 14,2 17,1 1017,0
17.09.2018 19:00:00 19,2 13,2 17,1 1016,8
17.09.2018 18:00:00 21,9 14,5 17,2 1016,9
17.09.2018 17:00:00 22,4 14,5 17,2 1017,3
17.09.2018 16:00:00 19,2 14,9 17,2 1017,8
17.09.2018 15:00:00 21,7 14,5 17,0 1017,6
17.09.2018 14:00:00 20,5 14,4 16,8 1017,7
17.09.2018 13:00:00 20,2 13,7 16,7 1017,5
17.09.2018 12:00:00 19,0 13,4 16,7 1018,2
17.09.2018 11:00:00 18,5 13,2 16,6 1018,2
17.09.2018 10:00:00 17,7 12,9 16,6 1018,0
17.09.2018 09:00:00 17,5 12,9 16,6 1017,8
17.09.2018 08:00:00 16,9 12,7 16,6 1017,5
17.09.2018 07:00:00 16,7 12,2 16,7 1017,2
17.09.2018 06:00:00 16,7 12,5 16,8 1017,3
17.09.2018 05:00:00 17,0 12,5 16,8 1017,3
17.09.2018 04:00:00 17,0 12,9 16,8 1016,6
17.09.2018 03:00:00 17,2 12,2 16,7 1017,4
17.09.2018 02:00:00 16,9 12,4 16,7 1017,8
17.09.2018 01:00:00 17,0 12,5 16,6 1018,0
17.09.2018 00:00:00 17,4 12,7 16,6 1018,4
16.09.2018 23:00:00 17,5 12,5 16,6 1018,5

tt = temperature
td = dewpoint
tw = water temperature
ppp = reduced air pressure

Next stations